createdAt,value
2023-01-07T00:01:37.147Z,1.15
2023-01-07T00:04:07.017Z,1.17
2023-01-07T00:06:36.289Z,1.25
2023-01-07T00:09:04.711Z,1.33
2023-01-07T00:11:34.252Z,1.40
2023-01-07T00:14:02.507Z,1.48
2023-01-07T00:16:31.517Z,1.56
2023-01-07T00:18:59.945Z,1.66
2023-01-07T00:21:28.528Z,1.71
2023-01-07T00:23:58.995Z,1.73
2023-01-07T00:26:27.918Z,1.75
2023-01-07T00:28:55.881Z,1.75
2023-01-07T00:31:25.065Z,1.79
2023-01-07T00:34:07.055Z,1.82
2023-01-07T00:36:35.748Z,1.82
2023-01-07T00:39:05.937Z,1.80
2023-01-07T00:41:33.016Z,1.77
2023-01-07T00:44:00.358Z,1.77
2023-01-07T00:46:27.662Z,1.75
2023-01-07T00:48:54.825Z,1.76
2023-01-07T00:51:21.980Z,1.77
2023-01-07T00:53:49.210Z,1.79
2023-01-07T00:56:17.867Z,1.82
2023-01-07T00:58:45.359Z,1.81
2023-01-07T01:01:14.128Z,1.80
2023-01-07T01:03:42.097Z,1.82
2023-01-07T01:06:13.604Z,1.85
2023-01-07T01:08:41.752Z,1.86
2023-01-07T01:11:11.503Z,1.88
2023-01-07T01:13:39.236Z,1.90
2023-01-07T01:16:11.539Z,1.92
2023-01-07T01:18:38.938Z,1.96
2023-01-07T01:21:08.110Z,2.01
2023-01-07T01:23:35.127Z,2.03
2023-01-07T01:26:07.923Z,2.03
2023-01-07T01:28:35.653Z,2.04
2023-01-07T01:31:03.391Z,2.05
2023-01-07T01:33:39.333Z,2.09
2023-01-07T01:36:10.407Z,2.14
2023-01-07T01:38:37.789Z,2.16
2023-01-07T01:41:05.068Z,2.21
2023-01-07T01:43:37.656Z,2.25
2023-01-07T01:46:07.442Z,2.27
2023-01-07T01:48:37.946Z,2.32
2023-01-07T01:51:05.760Z,2.37
2023-01-07T01:53:36.472Z,2.45
2023-01-07T01:56:08.468Z,2.50
2023-01-07T01:58:39.309Z,2.55
2023-01-07T02:01:07.194Z,2.56
2023-01-07T02:03:37.670Z,2.55
2023-01-07T02:06:05.068Z,2.55
2023-01-07T02:08:33.077Z,2.53
2023-01-07T02:11:18.265Z,2.53
2023-01-07T02:14:02.467Z,2.54
2023-01-07T02:16:38.006Z,2.54
2023-01-07T02:19:24.512Z,2.57
2023-01-07T02:21:58.783Z,2.56
2023-01-07T02:24:50.290Z,2.59
2023-01-07T02:27:27.059Z,2.62
2023-01-07T02:30:08.911Z,2.63
2023-01-07T02:32:55.139Z,2.63
2023-01-07T02:35:32.682Z,2.69
2023-01-07T02:38:08.973Z,2.74
2023-01-07T02:40:44.805Z,2.79
2023-01-07T02:43:18.124Z,2.83
2023-01-07T02:45:50.707Z,2.88
2023-01-07T02:48:20.951Z,2.85
2023-01-07T02:50:48.171Z,2.84
2023-01-07T02:53:19.342Z,2.87
2023-01-07T02:55:58.581Z,2.90
2023-01-07T02:58:49.807Z,2.93
2023-01-07T03:01:36.155Z,2.95
2023-01-07T03:04:15.617Z,2.95
2023-01-07T03:06:57.477Z,2.94
2023-01-07T03:09:31.954Z,2.92
2023-01-07T03:12:07.048Z,2.88
2023-01-07T03:14:42.062Z,2.83
2023-01-07T03:17:13.653Z,2.80
2023-01-07T03:19:46.285Z,2.76
2023-01-07T03:22:17.092Z,2.73
2023-01-07T03:24:47.933Z,2.70
2023-01-07T03:27:17.873Z,2.68
2023-01-07T03:29:45.158Z,2.70
2023-01-07T03:32:17.514Z,2.72
2023-01-07T03:34:45.837Z,2.76
2023-01-07T03:37:15.513Z,2.80
2023-01-07T03:39:45.647Z,2.81
2023-01-07T03:42:31.718Z,2.82
2023-01-07T03:45:00.106Z,2.80
2023-01-07T03:47:30.689Z,2.79
2023-01-07T03:49:57.854Z,2.76
2023-01-07T03:52:25.045Z,2.73
2023-01-07T03:54:52.410Z,2.72
2023-01-07T03:57:20.053Z,2.70
2023-01-07T03:59:47.193Z,2.68
2023-01-07T04:02:14.497Z,2.67
2023-01-07T04:04:41.831Z,2.68
2023-01-07T04:07:09.682Z,2.70
2023-01-07T04:09:36.657Z,2.71
2023-01-07T04:12:04.771Z,2.73
2023-01-07T04:14:31.899Z,2.76
2023-01-07T04:16:59.699Z,2.79
2023-01-07T04:19:27.213Z,2.82
2023-01-07T04:21:54.502Z,2.84
2023-01-07T04:24:21.574Z,2.84
2023-01-07T04:26:49.029Z,2.85
2023-01-07T04:29:16.428Z,2.87
2023-01-07T04:31:43.424Z,2.89
2023-01-07T04:34:10.494Z,2.90
2023-01-07T04:36:37.748Z,2.91
2023-01-07T04:39:05.563Z,2.91
2023-01-07T04:41:33.072Z,2.92
2023-01-07T04:44:00.127Z,2.97
2023-01-07T04:46:27.211Z,3.01
2023-01-07T04:48:54.517Z,3.03
2023-01-07T04:51:22.417Z,3.05
2023-01-07T04:53:49.641Z,3.06
2023-01-07T04:56:17.646Z,3.07
2023-01-07T04:58:45.822Z,3.08
2023-01-07T05:01:13.589Z,3.09
2023-01-07T05:03:40.919Z,3.12
2023-01-07T05:06:09.566Z,3.16
2023-01-07T05:08:36.928Z,3.19
2023-01-07T05:11:05.336Z,3.20
2023-01-07T05:13:35.408Z,3.22
2023-01-07T05:16:04.021Z,3.25
2023-01-07T05:18:32.700Z,3.30
2023-01-07T05:21:00.018Z,3.32
2023-01-07T05:23:27.160Z,3.35
2023-01-07T05:25:54.346Z,3.38
2023-01-07T05:28:21.474Z,3.41
2023-01-07T05:30:49.089Z,3.44
2023-01-07T05:33:16.122Z,3.47
2023-01-07T05:35:43.384Z,3.49
2023-01-07T05:38:10.678Z,3.51
2023-01-07T05:40:37.946Z,3.56
2023-01-07T05:43:05.232Z,3.58
2023-01-07T05:45:32.329Z,3.58
2023-01-07T05:47:59.289Z,3.58
2023-01-07T05:50:26.468Z,3.57
2023-01-07T05:52:54.783Z,3.60
2023-01-07T05:55:21.858Z,3.62
2023-01-07T05:57:49.088Z,3.63
2023-01-07T06:00:18.641Z,3.64
2023-01-07T06:02:45.942Z,3.65
2023-01-07T06:05:13.494Z,3.67
2023-01-07T06:07:40.634Z,3.68
2023-01-07T06:10:08.626Z,3.69
2023-01-07T06:12:35.804Z,3.73
2023-01-07T06:15:02.679Z,3.72
2023-01-07T06:17:29.838Z,3.72
2023-01-07T06:19:57.105Z,3.73
2023-01-07T06:22:24.014Z,3.72
2023-01-07T06:24:51.007Z,3.71
2023-01-07T06:27:18.236Z,3.75
2023-01-07T06:29:45.248Z,3.80
2023-01-07T06:32:12.627Z,3.83
2023-01-07T06:34:39.659Z,3.89
2023-01-07T06:37:07.064Z,3.93
2023-01-07T06:39:34.131Z,3.95
2023-01-07T06:42:01.177Z,3.94
2023-01-07T06:44:28.289Z,3.97
2023-01-07T06:46:56.376Z,3.97
2023-01-07T06:49:23.597Z,4.00
2023-01-07T06:51:50.550Z,4.01
2023-01-07T06:54:18.097Z,4.00
2023-01-07T06:56:45.124Z,3.95
2023-01-07T06:59:12.819Z,3.94
2023-01-07T07:01:40.335Z,3.96
2023-01-07T07:04:07.646Z,4.00
2023-01-07T07:06:34.619Z,4.06
2023-01-07T07:09:01.639Z,4.12
2023-01-07T07:11:28.693Z,4.19
2023-01-07T07:13:55.714Z,4.29
2023-01-07T07:16:24.246Z,4.32
2023-01-07T07:18:51.606Z,4.38
2023-01-07T07:21:18.675Z,4.43
2023-01-07T07:23:45.860Z,4.45
2023-01-07T07:26:12.988Z,4.47
2023-01-07T07:28:42.861Z,4.50
2023-01-07T07:31:10.546Z,4.52
2023-01-07T07:33:37.653Z,4.56
2023-01-07T07:36:05.023Z,4.59
2023-01-07T07:38:32.005Z,4.64
2023-01-07T07:40:59.885Z,4.67
2023-01-07T07:43:26.950Z,4.66
2023-01-07T07:45:54.024Z,4.69
2023-01-07T07:48:21.454Z,4.71
2023-01-07T07:50:53.032Z,4.72
2023-01-07T07:53:23.033Z,4.74
2023-01-07T07:55:50.188Z,4.75
2023-01-07T07:58:17.215Z,4.73
2023-01-07T08:00:44.393Z,4.73
2023-01-07T08:03:12.820Z,4.72
2023-01-07T08:05:43.305Z,4.70
2023-01-07T08:08:11.702Z,4.67
2023-01-07T08:10:39.361Z,4.65
2023-01-07T08:13:10.283Z,4.70
2023-01-07T08:15:37.672Z,4.78
2023-01-07T08:18:06.726Z,4.80
2023-01-07T08:20:34.473Z,4.80
2023-01-07T08:23:05.152Z,4.79
2023-01-07T08:25:33.563Z,4.81
2023-01-07T08:28:01.674Z,4.84
2023-01-07T08:30:29.191Z,4.86
2023-01-07T08:32:56.778Z,4.88
2023-01-07T08:35:24.496Z,4.87
2023-01-07T08:37:52.072Z,4.92
2023-01-07T08:40:19.255Z,5.00
2023-01-07T08:42:46.244Z,5.09
2023-01-07T08:45:14.467Z,5.16
2023-01-07T08:47:41.450Z,5.25
2023-01-07T08:50:09.427Z,5.31
2023-01-07T08:52:38.185Z,5.38
2023-01-07T08:55:05.410Z,5.49
2023-01-07T08:57:32.363Z,5.55
2023-01-07T08:59:59.631Z,5.58
2023-01-07T09:02:26.975Z,5.63
2023-01-07T09:04:54.473Z,5.67
2023-01-07T09:07:21.761Z,5.76
2023-01-07T09:09:48.926Z,5.83
2023-01-07T09:12:16.143Z,5.88
2023-01-07T09:14:43.357Z,5.94
2023-01-07T09:17:10.575Z,5.95
2023-01-07T09:19:37.505Z,6.05
2023-01-07T09:22:05.257Z,6.12
2023-01-07T09:24:32.269Z,6.20
2023-01-07T09:26:59.238Z,6.26
2023-01-07T09:29:27.080Z,6.30
2023-01-07T09:31:54.177Z,6.33
2023-01-07T09:34:21.626Z,6.28
2023-01-07T09:36:48.932Z,6.19
2023-01-07T09:39:17.322Z,6.14
2023-01-07T09:41:55.541Z,6.07
2023-01-07T09:44:36.109Z,6.00
2023-01-07T09:47:04.605Z,5.96
2023-01-07T09:49:33.633Z,5.93
2023-01-07T09:52:06.007Z,5.89
2023-01-07T09:54:34.945Z,5.80
2023-01-07T09:57:02.427Z,5.73
2023-01-07T09:59:30.609Z,5.72
2023-01-07T10:02:07.610Z,5.73
2023-01-07T10:04:42.982Z,5.74
2023-01-07T10:07:21.898Z,5.76
2023-01-07T10:10:06.662Z,5.78
2023-01-07T10:12:39.855Z,5.77
2023-01-07T10:15:30.933Z,5.80
2023-01-07T10:18:17.527Z,5.89
2023-01-07T10:20:51.987Z,5.94
2023-01-07T10:23:24.228Z,6.03
2023-01-07T10:25:54.773Z,6.08
2023-01-07T10:28:29.959Z,6.10
2023-01-07T10:30:57.187Z,6.08
2023-01-07T10:33:28.675Z,6.13
2023-01-07T10:36:04.817Z,6.15
2023-01-07T10:38:35.541Z,6.23
2023-01-07T10:41:08.671Z,6.32
2023-01-07T10:43:56.914Z,6.41
2023-01-07T10:46:43.507Z,6.44
2023-01-07T10:49:23.746Z,6.42
2023-01-07T10:52:10.926Z,6.40
2023-01-07T10:54:52.654Z,6.47
2023-01-07T10:57:23.134Z,6.49
2023-01-07T10:59:52.826Z,6.50
2023-01-07T11:02:22.997Z,6.49
2023-01-07T11:04:50.576Z,6.46
2023-01-07T11:07:26.363Z,6.45
2023-01-07T11:09:56.245Z,6.41
2023-01-07T11:12:29.218Z,6.40
2023-01-07T11:15:00.167Z,6.45
2023-01-07T11:17:36.115Z,6.46
2023-01-07T11:20:03.428Z,6.48
2023-01-07T11:22:35.647Z,6.58
2023-01-07T11:25:22.937Z,6.72
2023-01-07T11:27:50.251Z,6.79
2023-01-07T11:30:27.159Z,6.82
2023-01-07T11:33:00.699Z,6.86
2023-01-07T11:35:29.225Z,6.98
2023-01-07T11:37:56.817Z,7.05
2023-01-07T11:40:26.686Z,7.18
2023-01-07T11:42:56.629Z,7.30
2023-01-07T11:45:27.010Z,7.37
2023-01-07T11:48:02.101Z,7.45
2023-01-07T11:50:36.240Z,7.57
2023-01-07T11:53:09.057Z,7.61
2023-01-07T11:55:36.227Z,7.60
2023-01-07T11:58:29.278Z,7.57
2023-01-07T12:01:09.563Z,7.58
2023-01-07T12:03:37.927Z,7.62
2023-01-07T12:06:09.893Z,7.68
2023-01-07T12:08:37.866Z,7.83
2023-01-07T12:11:10.004Z,7.97
2023-01-07T12:13:38.035Z,8.19
2023-01-07T12:16:07.590Z,8.47
2023-01-07T12:18:57.605Z,8.67
2023-01-07T12:21:42.499Z,8.75
2023-01-07T12:24:55.489Z,8.84
2023-01-07T12:27:32.910Z,8.83
2023-01-07T12:30:13.973Z,8.81
2023-01-07T12:32:51.354Z,8.78
2023-01-07T12:35:24.541Z,8.73
2023-01-07T12:37:58.738Z,8.74
2023-01-07T12:40:33.841Z,8.80
2023-01-07T12:43:06.876Z,8.85
2023-01-07T12:45:41.398Z,8.81
2023-01-07T12:48:16.967Z,8.70
2023-01-07T12:50:48.641Z,8.55
2023-01-07T12:53:19.868Z,8.42
2023-01-07T12:55:51.142Z,8.21
2023-01-07T12:58:23.536Z,7.98
2023-01-07T13:00:59.318Z,7.81
2023-01-07T13:03:39.334Z,7.66
2023-01-07T13:06:11.483Z,7.56
2023-01-07T13:08:45.295Z,7.53
2023-01-07T13:11:41.392Z,7.53
2023-01-07T13:14:12.161Z,7.53
2023-01-07T13:16:39.488Z,7.56
2023-01-07T13:19:09.655Z,7.57
2023-01-07T13:21:37.659Z,7.58
2023-01-07T13:24:19.614Z,7.55
2023-01-07T13:26:57.813Z,7.48
2023-01-07T13:29:44.080Z,7.39
2023-01-07T13:32:38.923Z,7.28
2023-01-07T13:35:29.122Z,7.12
2023-01-07T13:38:17.148Z,6.98
2023-01-07T13:41:04.153Z,6.87
2023-01-07T13:43:50.612Z,6.73
2023-01-07T13:46:22.171Z,6.69
2023-01-07T13:48:55.779Z,6.64
2023-01-07T13:51:30.433Z,6.60
2023-01-07T13:53:58.100Z,6.57
2023-01-07T13:56:44.890Z,6.54
2023-01-07T13:59:28.460Z,6.54
2023-01-07T14:02:18.556Z,6.55
2023-01-07T14:04:53.270Z,6.54
2023-01-07T14:07:21.400Z,6.53
2023-01-07T14:09:49.642Z,6.55
2023-01-07T14:13:01.830Z,6.49
2023-01-07T14:16:00.741Z,6.46
2023-01-07T14:19:13.900Z,6.40
2023-01-07T14:21:59.493Z,6.31
2023-01-07T14:24:59.612Z,6.26
2023-01-07T14:27:46.827Z,6.17
2023-01-07T14:30:27.711Z,6.04
2023-01-07T14:33:01.450Z,5.97
2023-01-07T14:35:33.690Z,5.91
2023-01-07T14:38:00.833Z,5.87
2023-01-07T14:41:03.073Z,5.87
2023-01-07T14:44:03.687Z,5.84
2023-01-07T14:46:51.886Z,5.81
2023-01-07T14:49:53.896Z,5.79
2023-01-07T14:52:51.224Z,5.74
2023-01-07T14:55:42.792Z,5.71
2023-01-07T14:58:34.773Z,5.63
2023-01-07T15:01:26.079Z,5.50
2023-01-07T15:04:05.338Z,5.41
2023-01-07T15:06:37.209Z,5.36
2023-01-07T15:09:28.004Z,5.32
2023-01-07T15:12:14.831Z,5.33
2023-01-07T15:15:04.317Z,5.30
2023-01-07T15:17:32.133Z,5.27
2023-01-07T15:19:59.660Z,5.21
2023-01-07T15:22:49.778Z,5.15
2023-01-07T15:25:30.161Z,5.11
2023-01-07T15:28:05.768Z,5.06
2023-01-07T15:30:49.007Z,5.06
2023-01-07T15:33:36.040Z,5.08
2023-01-07T15:36:07.845Z,5.13
2023-01-07T15:38:41.620Z,5.18
2023-01-07T15:41:26.110Z,5.25
2023-01-07T15:43:53.731Z,5.30
2023-01-07T15:46:21.538Z,5.32
2023-01-07T15:49:04.197Z,5.35
2023-01-07T15:51:39.708Z,5.37
2023-01-07T15:54:09.059Z,5.36
2023-01-07T15:56:37.929Z,5.34
2023-01-07T15:59:14.704Z,5.32
2023-01-07T16:01:50.876Z,5.32
2023-01-07T16:04:27.802Z,5.32
2023-01-07T16:06:56.709Z,5.29
2023-01-07T16:09:25.240Z,5.24
2023-01-07T16:11:54.689Z,5.20
2023-01-07T16:14:23.778Z,5.18
2023-01-07T16:17:04.652Z,5.16
2023-01-07T16:19:31.826Z,5.15
2023-01-07T16:22:00.993Z,5.15
2023-01-07T16:24:28.662Z,5.15
2023-01-07T16:26:59.384Z,5.16
2023-01-07T16:29:35.401Z,5.18
2023-01-07T16:32:05.109Z,5.17
2023-01-07T16:35:04.533Z,5.16
2023-01-07T16:37:32.285Z,5.13
2023-01-07T16:39:59.819Z,5.12
2023-01-07T16:42:27.541Z,5.09
2023-01-07T16:45:07.060Z,5.06
2023-01-07T16:47:35.368Z,5.02
2023-01-07T16:50:41.888Z,4.99
2023-01-07T16:53:33.648Z,4.98
2023-01-07T16:56:17.524Z,4.97
2023-01-07T16:58:50.263Z,4.96
2023-01-07T17:01:29.952Z,4.93
2023-01-07T17:04:00.986Z,4.89
2023-01-07T17:06:31.499Z,4.85
2023-01-07T17:09:06.097Z,4.82
2023-01-07T17:11:40.651Z,4.81
2023-01-07T17:14:33.372Z,4.78
2023-01-07T17:17:08.927Z,4.75
2023-01-07T17:19:42.282Z,4.72
2023-01-07T17:22:31.758Z,4.71
2023-01-07T17:25:07.176Z,4.71
2023-01-07T17:27:35.781Z,4.71
2023-01-07T17:30:09.067Z,4.72
2023-01-07T17:32:37.806Z,4.72
2023-01-07T17:35:05.952Z,4.73
2023-01-07T17:37:33.346Z,4.74
2023-01-07T17:40:00.392Z,4.76
2023-01-07T17:42:46.987Z,4.77
2023-01-07T17:45:19.620Z,4.81
2023-01-07T17:47:49.489Z,4.84
2023-01-07T17:50:20.411Z,4.87
2023-01-07T17:52:49.740Z,4.90
2023-01-07T17:55:22.925Z,4.95
2023-01-07T17:57:50.090Z,5.00
2023-01-07T18:00:20.879Z,5.03
2023-01-07T18:02:49.128Z,5.05
2023-01-07T18:05:19.176Z,5.07
2023-01-07T18:07:46.176Z,5.09
2023-01-07T18:10:15.279Z,5.10
2023-01-07T18:12:43.624Z,5.11
2023-01-07T18:15:20.500Z,5.11
2023-01-07T18:17:46.348Z,5.09
2023-01-07T18:20:14.596Z,5.09
2023-01-07T18:22:41.919Z,5.10
2023-01-07T18:25:12.759Z,5.09
2023-01-07T18:27:43.057Z,5.09
2023-01-07T18:30:16.409Z,5.10
2023-01-07T18:32:43.945Z,5.10
2023-01-07T18:35:11.524Z,5.10
2023-01-07T18:37:38.657Z,5.09
2023-01-07T18:40:06.425Z,5.09
2023-01-07T18:42:35.053Z,5.11
2023-01-07T18:45:02.597Z,5.11
2023-01-07T18:47:43.179Z,5.13
2023-01-07T18:50:11.257Z,5.13
2023-01-07T18:52:42.880Z,5.12
2023-01-07T18:55:11.505Z,5.12
2023-01-07T18:57:38.767Z,5.12
2023-01-07T19:00:07.271Z,5.12
2023-01-07T19:02:34.364Z,5.11
2023-01-07T19:05:01.688Z,5.12
2023-01-07T19:07:30.352Z,5.11
2023-01-07T19:09:57.397Z,5.10
2023-01-07T19:12:24.427Z,5.10
2023-01-07T19:14:51.660Z,5.09
2023-01-07T19:17:18.651Z,5.06
2023-01-07T19:19:48.730Z,5.05
2023-01-07T19:22:17.385Z,5.03
2023-01-07T19:24:44.692Z,5.02
2023-01-07T19:27:14.861Z,5.01
2023-01-07T19:29:41.987Z,5.01
2023-01-07T19:32:09.300Z,5.00
2023-01-07T19:34:36.365Z,4.98
2023-01-07T19:37:03.591Z,4.97
2023-01-07T19:39:30.779Z,4.96
2023-01-07T19:41:57.881Z,4.94
2023-01-07T19:44:25.094Z,4.92
2023-01-07T19:46:52.348Z,4.91
2023-01-07T19:49:19.406Z,4.91
2023-01-07T19:51:47.881Z,4.89
2023-01-07T19:54:16.806Z,4.85
2023-01-07T19:56:44.781Z,4.84
2023-01-07T19:59:12.615Z,4.83
2023-01-07T20:01:40.705Z,4.82
2023-01-07T20:04:09.290Z,4.82
2023-01-07T20:06:39.850Z,4.82
2023-01-07T20:09:11.072Z,4.82
2023-01-07T20:11:39.009Z,4.81
2023-01-07T20:14:07.225Z,4.82
2023-01-07T20:16:37.124Z,4.81
2023-01-07T20:19:05.491Z,4.81
2023-01-07T20:21:33.127Z,4.79
2023-01-07T20:24:00.627Z,4.79
2023-01-07T20:26:31.705Z,4.79
2023-01-07T20:29:00.253Z,4.77
2023-01-07T20:31:29.568Z,4.76
2023-01-07T20:33:57.669Z,4.74
2023-01-07T20:36:27.499Z,4.71
2023-01-07T20:38:54.951Z,4.70
2023-01-07T20:41:23.930Z,4.68
2023-01-07T20:43:55.961Z,4.66
2023-01-07T20:46:23.534Z,4.63
2023-01-07T20:48:51.373Z,4.60
2023-01-07T20:51:20.212Z,4.59
2023-01-07T20:53:48.147Z,4.58
2023-01-07T20:56:18.532Z,4.55
2023-01-07T20:58:45.959Z,4.53
2023-01-07T21:01:15.261Z,4.51
2023-01-07T21:03:43.573Z,4.50
2023-01-07T21:06:14.830Z,4.49
2023-01-07T21:08:41.888Z,4.49
2023-01-07T21:11:11.219Z,4.48
2023-01-07T21:13:38.346Z,4.48
2023-01-07T21:16:10.034Z,4.47
2023-01-07T21:18:37.895Z,4.46
2023-01-07T21:21:09.654Z,4.45
2023-01-07T21:23:36.683Z,4.43
2023-01-07T21:26:05.809Z,4.40
2023-01-07T21:28:33.112Z,4.39
2023-01-07T21:31:06.130Z,4.36
2023-01-07T21:33:34.350Z,4.34
2023-01-07T21:36:09.613Z,4.33
2023-01-07T21:38:37.175Z,4.30
2023-01-07T21:41:08.545Z,4.26
2023-01-07T21:43:35.507Z,4.23
2023-01-07T21:46:03.973Z,4.20
2023-01-07T21:48:34.496Z,4.18
2023-01-07T21:51:05.944Z,4.15
2023-01-07T21:53:33.972Z,4.13
2023-01-07T21:56:05.839Z,4.11
2023-01-07T21:58:33.413Z,4.09
2023-01-07T22:01:00.468Z,4.07
2023-01-07T22:03:29.409Z,4.07
2023-01-07T22:06:01.646Z,4.06
2023-01-07T22:08:29.713Z,4.05
2023-01-07T22:10:56.682Z,4.02
2023-01-07T22:13:24.607Z,4.01
2023-01-07T22:15:51.942Z,3.99
2023-01-07T22:18:23.079Z,3.97
2023-01-07T22:20:56.868Z,3.95
2023-01-07T22:23:24.137Z,3.94
2023-01-07T22:25:51.221Z,3.92
2023-01-07T22:28:20.705Z,3.90
2023-01-07T22:30:52.861Z,3.91
2023-01-07T22:33:19.969Z,3.92
2023-01-07T22:35:50.898Z,3.92
2023-01-07T22:38:20.283Z,3.93
2023-01-07T22:40:47.378Z,3.93
2023-01-07T22:43:19.024Z,3.93
2023-01-07T22:45:53.526Z,3.90
2023-01-07T22:48:25.122Z,3.89
2023-01-07T22:50:53.436Z,3.88
2023-01-07T22:53:20.760Z,3.89
2023-01-07T22:55:49.598Z,3.91
2023-01-07T22:58:18.377Z,3.92
2023-01-07T23:01:10.353Z,3.92
2023-01-07T23:03:37.764Z,3.92
2023-01-07T23:06:04.930Z,3.94
2023-01-07T23:08:32.061Z,3.95
2023-01-07T23:10:59.394Z,3.96
2023-01-07T23:13:26.431Z,3.98
2023-01-07T23:15:53.449Z,3.99
2023-01-07T23:18:20.591Z,4.00
2023-01-07T23:20:47.566Z,3.99
2023-01-07T23:23:15.478Z,4.00
2023-01-07T23:25:46.806Z,3.99
2023-01-07T23:28:13.772Z,3.97
2023-01-07T23:30:41.244Z,3.97
2023-01-07T23:33:08.788Z,3.96
2023-01-07T23:35:35.835Z,3.96
2023-01-07T23:38:04.083Z,3.97
2023-01-07T23:40:31.467Z,3.97
2023-01-07T23:42:58.476Z,3.95
2023-01-07T23:45:25.670Z,3.93
2023-01-07T23:47:53.579Z,3.91
2023-01-07T23:50:20.509Z,3.90
2023-01-07T23:52:48.038Z,3.90
2023-01-07T23:55:15.073Z,3.88
2023-01-07T23:57:42.131Z,3.87
